createdAt,value
2019-05-15T00:02:13.012Z,48456.05
2019-05-15T00:04:40.787Z,48444.23
2019-05-15T00:07:08.899Z,48446.20
2019-05-15T00:09:39.591Z,48420.61
2019-05-15T00:12:08.440Z,48423.56
2019-05-15T00:14:35.460Z,48394.02
2019-05-15T00:17:03.188Z,48413.71
2019-05-15T00:19:30.855Z,48405.84
2019-05-15T00:21:58.661Z,48418.64
2019-05-15T00:24:28.623Z,48425.53
2019-05-15T00:26:55.761Z,48430.45
2019-05-15T00:29:23.415Z,48419.62
2019-05-15T00:31:51.088Z,48440.30
2019-05-15T00:34:18.739Z,48437.34
2019-05-15T00:36:48.727Z,48419.62
2019-05-15T00:39:15.755Z,48423.56
2019-05-15T00:41:51.474Z,48411.74
2019-05-15T00:44:12.804Z,48413.71
2019-05-15T00:46:40.524Z,48425.53
2019-05-15T00:49:08.703Z,48452.11
2019-05-15T00:51:38.805Z,48436.36
2019-05-15T00:54:08.279Z,48430.45
2019-05-15T00:56:35.435Z,48452.11
2019-05-15T00:59:03.126Z,48410.76
2019-05-15T01:01:30.848Z,48436.36
2019-05-15T01:03:58.766Z,48439.31
2019-05-15T01:06:28.483Z,48432.42
2019-05-15T01:08:55.976Z,48424.54
2019-05-15T01:11:23.671Z,48404.85
2019-05-15T01:13:51.379Z,48399.93
2019-05-15T01:16:19.044Z,48453.10
2019-05-15T01:18:48.957Z,48449.16
2019-05-15T01:21:18.604Z,48453.10
2019-05-15T01:23:45.601Z,48433.41
2019-05-15T01:26:13.254Z,48437.34
2019-05-15T01:28:40.911Z,48407.80
2019-05-15T01:31:08.826Z,48439.31
2019-05-15T01:33:38.809Z,48445.22
2019-05-15T01:36:08.348Z,48446.20
2019-05-15T01:38:35.341Z,48413.71
2019-05-15T01:41:02.996Z,48415.68
2019-05-15T01:43:30.655Z,48398.94
2019-05-15T01:45:58.871Z,48443.25
2019-05-15T01:48:28.308Z,48434.39
2019-05-15T01:50:58.387Z,48437.34
2019-05-15T01:53:25.544Z,48419.62
2019-05-15T01:55:53.210Z,48448.18
2019-05-15T01:58:20.917Z,48416.67
2019-05-15T02:00:48.653Z,48444.23
2019-05-15T02:03:18.329Z,48417.65
2019-05-15T02:05:47.921Z,48465.90
2019-05-15T02:08:15.168Z,48418.64
2019-05-15T02:10:42.842Z,48405.84
2019-05-15T02:13:10.497Z,48428.48
2019-05-15T02:15:39.525Z,48436.36
2019-05-15T02:18:08.414Z,48414.70
2019-05-15T02:20:38.767Z,48431.43
2019-05-15T02:23:05.850Z,48433.41
2019-05-15T02:25:33.495Z,48457.04
2019-05-15T02:28:01.181Z,48428.48
2019-05-15T02:30:33.915Z,48433.41
2019-05-15T02:32:59.152Z,48461.96
2019-05-15T02:35:29.543Z,48445.22
2019-05-15T02:37:59.561Z,48425.53
2019-05-15T02:40:25.715Z,48433.41
2019-05-15T02:42:53.371Z,48428.48
2019-05-15T02:45:21.049Z,48463.93
2019-05-15T02:47:48.943Z,48424.54
2019-05-15T02:50:20.187Z,48437.34
2019-05-15T02:52:49.482Z,48460.97
2019-05-15T02:55:15.463Z,48430.45
2019-05-15T02:57:43.118Z,48421.59
2019-05-15T03:00:11.409Z,48418.64
2019-05-15T03:02:41.273Z,48433.41
2019-05-15T03:05:09.324Z,48449.16
2019-05-15T03:07:40.231Z,48461.96
2019-05-15T03:10:09.359Z,48444.23
2019-05-15T03:12:36.079Z,48424.54
2019-05-15T03:15:03.736Z,48438.33
2019-05-15T03:17:31.454Z,48415.68
2019-05-15T03:19:59.232Z,48450.14
2019-05-15T03:22:29.456Z,48413.71
2019-05-15T03:24:59.083Z,48421.59
2019-05-15T03:27:25.665Z,48429.46
2019-05-15T03:29:53.323Z,48433.41
2019-05-15T03:32:32.813Z,48435.37
2019-05-15T03:34:56.590Z,48462.95
2019-05-15T03:37:22.114Z,48422.57
2019-05-15T03:39:51.813Z,48424.54
2019-05-15T03:42:19.039Z,48432.42
2019-05-15T03:44:49.989Z,48460.97
2019-05-15T03:47:19.197Z,48436.36
2019-05-15T03:49:49.134Z,48416.67
2019-05-15T03:52:15.163Z,48468.85
2019-05-15T03:54:42.821Z,48439.31
2019-05-15T03:57:10.548Z,48436.36
2019-05-15T03:59:39.868Z,48427.50
2019-05-15T04:02:08.625Z,48434.39
2019-05-15T04:04:38.869Z,48453.10
2019-05-15T04:07:09.022Z,48435.37
2019-05-15T04:09:38.484Z,48429.46
2019-05-15T04:12:04.642Z,48403.87
2019-05-15T04:14:32.277Z,48449.16
2019-05-15T04:16:59.927Z,48415.68
2019-05-15T04:19:29.609Z,48441.28
2019-05-15T04:21:59.903Z,48465.90
2019-05-15T04:24:29.859Z,48435.37
2019-05-15T04:26:55.721Z,48431.43
2019-05-15T04:29:23.435Z,48424.54
2019-05-15T04:32:00.574Z,48411.74
2019-05-15T04:34:20.456Z,48427.50
2019-05-15T04:36:49.716Z,48418.64
2019-05-15T04:39:19.295Z,48409.77
2019-05-15T04:41:49.750Z,48444.23
2019-05-15T04:44:19.120Z,48451.13
2019-05-15T04:46:45.722Z,48425.53
2019-05-15T04:49:13.556Z,48464.91
2019-05-15T04:51:41.227Z,48442.27
2019-05-15T04:54:09.499Z,48407.80
2019-05-15T04:56:39.977Z,48455.07
2019-05-15T04:59:09.989Z,48442.27
2019-05-15T05:01:39.849Z,48444.23
2019-05-15T05:04:05.755Z,48438.33
2019-05-15T05:06:33.489Z,48459.00
2019-05-15T05:09:01.251Z,48444.23
2019-05-15T05:11:28.997Z,48447.19
2019-05-15T05:13:59.038Z,48440.30
2019-05-15T05:16:26.099Z,48396.97
2019-05-15T05:18:53.827Z,48421.59
2019-05-15T05:21:21.479Z,48437.34
2019-05-15T05:23:49.135Z,48415.68
2019-05-15T05:26:18.552Z,48440.30
2019-05-15T05:28:48.422Z,48442.27
2019-05-15T05:31:15.547Z,48414.70
2019-05-15T05:33:43.195Z,48421.59
2019-05-15T05:36:10.886Z,48406.82
2019-05-15T05:38:38.928Z,48414.70
2019-05-15T05:41:08.120Z,48396.97
2019-05-15T05:43:38.138Z,48448.18
2019-05-15T05:46:05.542Z,48418.64
2019-05-15T05:48:33.268Z,48438.33
2019-05-15T05:51:00.950Z,48423.56
2019-05-15T05:53:28.833Z,48392.05
2019-05-15T05:55:58.062Z,48432.42
2019-05-15T05:58:25.993Z,48397.96
2019-05-15T06:00:53.655Z,48400.91
2019-05-15T06:03:21.324Z,48429.46
2019-05-15T06:05:49.680Z,48421.59
2019-05-15T06:08:19.463Z,48415.68
2019-05-15T06:10:49.180Z,48382.20
2019-05-15T06:13:18.408Z,48404.85
2019-05-15T06:15:45.662Z,48403.87
2019-05-15T06:18:13.326Z,48414.70
2019-05-15T06:20:40.984Z,48433.41
2019-05-15T06:23:08.646Z,48426.51
2019-05-15T06:25:38.913Z,48421.59
2019-05-15T06:28:05.684Z,48402.88
2019-05-15T06:30:33.398Z,48438.33
2019-05-15T06:33:09.070Z,48395.99
2019-05-15T06:35:31.287Z,48407.80
2019-05-15T06:37:59.280Z,48399.93
2019-05-15T06:40:28.919Z,48384.17
2019-05-15T06:42:59.134Z,48389.10
2019-05-15T06:45:25.734Z,48410.76
2019-05-15T06:47:53.383Z,48370.39
2019-05-15T06:50:21.044Z,48394.02
2019-05-15T06:52:48.763Z,48403.87
2019-05-15T06:55:18.287Z,48380.23
2019-05-15T06:57:48.400Z,48356.61
2019-05-15T07:00:15.486Z,48381.22
2019-05-15T07:02:43.231Z,48378.27
2019-05-15T07:05:10.984Z,48384.17
2019-05-15T07:07:39.027Z,48419.62
2019-05-15T07:10:08.941Z,48367.43
2019-05-15T07:12:38.781Z,48395.00
2019-05-15T07:15:05.528Z,48410.76
2019-05-15T07:17:33.189Z,48425.53
2019-05-15T07:20:00.850Z,48384.17
2019-05-15T07:22:28.952Z,48409.77
2019-05-15T07:24:58.235Z,48411.74
2019-05-15T07:27:28.150Z,48381.22
2019-05-15T07:29:55.469Z,48437.34
2019-05-15T07:32:23.131Z,48398.94
2019-05-15T07:34:50.780Z,48376.30
2019-05-15T07:37:19.001Z,48430.45
2019-05-15T07:39:48.799Z,48397.96
2019-05-15T07:42:18.498Z,48421.59
2019-05-15T07:44:48.023Z,48412.73
2019-05-15T07:47:15.175Z,48409.77
2019-05-15T07:49:42.869Z,48405.84
2019-05-15T07:52:10.577Z,48391.07
2019-05-15T07:54:38.464Z,48406.82
2019-05-15T07:57:06.167Z,48407.80
2019-05-15T07:59:33.828Z,48398.94
2019-05-15T08:02:01.496Z,48376.30
2019-05-15T08:04:32.714Z,48400.91
2019-05-15T08:06:59.175Z,48405.84
2019-05-15T08:09:28.370Z,48412.73
2019-05-15T08:11:56.160Z,48407.80
2019-05-15T08:14:24.041Z,48419.62
2019-05-15T08:16:51.727Z,48407.80
2019-05-15T08:19:19.468Z,48399.93
2019-05-15T08:21:51.633Z,48387.13
2019-05-15T08:24:18.774Z,48407.80
2019-05-15T08:26:45.922Z,48424.54
2019-05-15T08:29:13.696Z,48406.82
2019-05-15T08:31:41.376Z,48403.87
2019-05-15T08:34:16.032Z,48411.74
2019-05-15T08:36:38.612Z,48385.16
2019-05-15T08:39:08.502Z,48386.14
2019-05-15T08:41:38.843Z,48415.68
2019-05-15T08:44:05.676Z,48409.77
2019-05-15T08:46:33.337Z,48409.77
2019-05-15T08:49:00.999Z,48396.97
2019-05-15T08:51:28.646Z,48409.77
2019-05-15T08:53:57.958Z,48417.65
2019-05-15T08:56:28.686Z,48397.96
2019-05-15T08:58:55.355Z,48397.96
2019-05-15T09:01:23.006Z,48443.25
2019-05-15T09:03:50.656Z,48402.88
2019-05-15T09:06:22.736Z,48381.22
2019-05-15T09:08:49.093Z,48417.65
2019-05-15T09:11:19.231Z,48384.17
2019-05-15T09:13:52.774Z,48421.59
2019-05-15T09:16:18.341Z,48423.56
2019-05-15T09:18:45.149Z,48419.62
2019-05-15T09:21:12.811Z,48399.93
2019-05-15T09:23:40.498Z,48433.41
2019-05-15T09:26:09.212Z,48399.93
2019-05-15T09:28:39.049Z,48435.37
2019-05-15T09:31:08.401Z,48397.96
2019-05-15T09:33:38.423Z,48427.50
2019-05-15T09:36:05.388Z,48425.53
2019-05-15T09:38:33.052Z,48449.16
2019-05-15T09:41:00.745Z,48434.39
2019-05-15T09:43:28.661Z,48448.18
2019-05-15T09:45:58.269Z,48426.51
2019-05-15T09:48:28.423Z,48411.74
2019-05-15T09:50:55.255Z,48421.59
2019-05-15T09:53:22.985Z,48405.84
2019-05-15T09:55:50.680Z,48434.39
2019-05-15T09:58:20.096Z,48419.62
2019-05-15T10:00:51.681Z,48426.51
2019-05-15T10:03:19.015Z,48426.51
2019-05-15T10:05:48.304Z,48421.59
2019-05-15T10:08:16.173Z,48407.80
2019-05-15T10:10:43.886Z,48403.87
2019-05-15T10:13:11.619Z,48463.93
2019-05-15T10:15:39.305Z,48419.62
2019-05-15T10:18:09.730Z,48424.54
2019-05-15T10:20:36.330Z,48385.16
2019-05-15T10:23:04.152Z,48410.76
2019-05-15T10:25:31.815Z,48417.65
2019-05-15T10:27:59.500Z,48425.53
2019-05-15T10:30:28.418Z,48401.90
2019-05-15T10:32:56.146Z,48431.43
2019-05-15T10:35:28.499Z,48375.31
2019-05-15T10:37:53.157Z,48397.96
2019-05-15T10:40:20.806Z,48422.57
2019-05-15T10:42:49.495Z,48417.65
2019-05-15T10:45:19.291Z,48397.96
2019-05-15T10:47:49.345Z,48421.59
2019-05-15T10:50:18.880Z,48429.46
2019-05-15T10:52:45.640Z,48380.23
2019-05-15T10:55:13.307Z,48397.96
2019-05-15T10:57:43.972Z,48402.88
2019-05-15T11:00:10.420Z,48449.16
2019-05-15T11:02:39.357Z,48419.62
2019-05-15T11:05:09.404Z,48417.65
2019-05-15T11:07:39.307Z,48397.96
2019-05-15T11:10:08.453Z,48389.10
2019-05-15T11:12:35.537Z,48412.73
2019-05-15T11:15:03.203Z,48395.99
2019-05-15T11:17:31.532Z,48358.57
2019-05-15T11:19:59.475Z,48395.99
2019-05-15T11:22:29.664Z,48412.73
2019-05-15T11:24:59.293Z,48419.62
2019-05-15T11:27:27.988Z,48397.96
2019-05-15T11:29:55.224Z,48366.45
2019-05-15T11:32:22.893Z,48359.56
2019-05-15T11:34:50.548Z,48389.10
2019-05-15T11:37:18.938Z,48379.25
2019-05-15T11:39:47.419Z,48399.93
2019-05-15T11:42:15.314Z,48412.73
2019-05-15T11:44:42.992Z,48390.08
2019-05-15T11:47:10.640Z,48413.71
2019-05-15T11:49:38.446Z,48428.48
2019-05-15T11:52:08.680Z,48412.73
2019-05-15T11:54:38.428Z,48419.62
2019-05-15T11:57:05.347Z,48405.84
2019-05-15T11:59:33.004Z,48408.79
2019-05-15T12:02:00.700Z,48407.80
2019-05-15T12:04:33.834Z,48434.39
2019-05-15T12:07:02.061Z,48451.13
2019-05-15T12:09:28.288Z,48433.41
2019-05-15T12:11:56.150Z,48432.42
2019-05-15T12:14:23.825Z,48448.18
2019-05-15T12:17:05.360Z,48447.19
2019-05-15T12:19:20.876Z,48430.45
2019-05-15T12:21:49.110Z,48456.05
2019-05-15T12:24:16.992Z,48422.57
2019-05-15T12:26:44.640Z,48451.13
2019-05-15T12:29:12.299Z,48392.05
2019-05-15T12:31:39.972Z,48417.65
2019-05-15T12:34:09.069Z,48421.59
2019-05-15T12:36:57.749Z,48451.13
2019-05-15T12:39:10.525Z,48476.73
2019-05-15T13:01:30.789Z,48411.74
2019-05-15T13:03:58.450Z,48417.65
2019-05-15T13:06:28.347Z,48427.50
2019-05-15T13:08:55.561Z,48419.62
2019-05-15T13:11:23.248Z,48440.30
2019-05-15T13:13:50.912Z,48425.53
2019-05-15T13:16:18.876Z,48447.19
2019-05-15T13:18:48.100Z,48457.04
2019-05-15T13:21:20.584Z,48426.51
2019-05-15T13:23:45.227Z,48445.22
2019-05-15T13:26:23.353Z,48431.43
2019-05-15T13:28:42.256Z,48449.16
2019-05-15T13:31:09.992Z,48447.19
2019-05-15T13:33:38.677Z,48478.70
2019-05-15T13:36:08.726Z,48437.34
2019-05-15T13:38:37.994Z,48427.50
2019-05-15T13:41:05.342Z,48461.96
2019-05-15T13:43:32.996Z,48435.37
2019-05-15T13:46:00.668Z,48445.22
2019-05-15T13:48:29.286Z,48441.28
2019-05-15T13:50:59.100Z,48426.51
2019-05-15T13:53:27.956Z,48433.41
2019-05-15T13:55:55.807Z,48470.82
2019-05-15T13:58:23.531Z,48400.91
2019-05-15T14:00:51.202Z,48401.90
2019-05-15T14:03:18.885Z,48422.57
2019-05-15T14:05:49.867Z,48423.56
2019-05-15T14:08:18.072Z,48432.42
2019-05-15T14:10:45.503Z,48439.31
2019-05-15T14:13:13.155Z,48455.07
2019-05-15T14:15:40.832Z,48443.25
2019-05-15T14:18:08.712Z,48427.50
2019-05-15T14:20:38.775Z,48443.25
2019-05-15T14:23:08.441Z,48452.11
2019-05-15T14:25:35.414Z,48432.42
2019-05-15T14:28:03.165Z,48467.87
2019-05-15T14:30:30.880Z,48432.42
2019-05-15T14:32:59.831Z,48438.33
2019-05-15T14:35:27.843Z,48448.18
2019-05-15T14:38:03.676Z,48455.07
2019-05-15T14:40:27.107Z,48444.23
2019-05-15T14:42:54.766Z,48430.45
2019-05-15T14:45:22.424Z,48403.87
2019-05-15T14:47:50.163Z,48429.46
2019-05-15T14:50:17.952Z,48440.30
2019-05-15T14:52:47.811Z,48405.84
2019-05-15T14:55:15.000Z,48419.62
2019-05-15T14:57:42.645Z,48447.19
2019-05-15T15:00:10.406Z,48432.42
2019-05-15T15:02:38.890Z,48451.13
2019-05-15T15:05:08.810Z,48430.45
2019-05-15T15:07:38.093Z,48464.91
2019-05-15T15:10:07.847Z,48443.25
2019-05-15T15:12:35.229Z,48447.19
2019-05-15T15:15:02.924Z,48453.10
2019-05-15T15:17:30.641Z,48465.90
2019-05-15T15:20:00.292Z,48443.25
2019-05-15T15:22:28.437Z,48459.00
2019-05-15T15:24:59.662Z,48438.33
2019-05-15T15:27:27.976Z,48474.76
2019-05-15T15:29:55.264Z,48482.64
2019-05-15T15:32:22.926Z,48445.22
2019-05-15T15:34:50.575Z,48449.16
2019-05-15T15:37:18.236Z,48446.20
2019-05-15T15:39:48.051Z,48426.51
2019-05-15T15:42:15.269Z,48451.13
2019-05-15T15:44:42.912Z,48453.10
2019-05-15T15:47:10.578Z,48399.93
2019-05-15T15:49:38.913Z,48433.41
2019-05-15T15:52:08.783Z,48417.65
2019-05-15T15:54:36.136Z,48451.13
2019-05-15T15:57:03.799Z,48441.28
2019-05-15T15:59:31.644Z,48484.61
2019-05-15T16:01:59.870Z,48422.57
2019-05-15T16:04:28.177Z,48415.68
2019-05-15T16:06:58.721Z,48429.46
2019-05-15T16:09:25.368Z,48451.13
2019-05-15T16:11:53.040Z,48435.37
2019-05-15T16:14:20.700Z,48419.62
2019-05-15T16:16:48.653Z,48412.73
2019-05-15T16:19:18.226Z,48415.68
2019-05-15T16:21:48.656Z,48431.43
2019-05-15T16:24:20.764Z,48429.46
2019-05-15T16:26:44.703Z,48452.11
2019-05-15T16:29:12.360Z,48458.02
2019-05-15T16:31:40.401Z,48431.43
2019-05-15T16:34:08.376Z,48445.22
2019-05-15T16:36:38.326Z,48429.46
2019-05-15T16:39:10.878Z,48450.14
2019-05-15T16:41:35.461Z,48436.36
2019-05-15T16:44:03.113Z,48454.08
2019-05-15T16:46:30.764Z,48404.85
2019-05-15T16:48:58.698Z,48461.96
2019-05-15T16:51:28.384Z,48452.11
2019-05-15T16:53:58.044Z,48460.97
2019-05-15T16:56:25.088Z,48454.08
2019-05-15T16:58:52.733Z,48441.28
2019-05-15T17:01:20.418Z,48431.43
2019-05-15T17:03:48.492Z,48460.97
2019-05-15T17:06:18.648Z,48442.27
2019-05-15T17:08:48.568Z,48429.46
2019-05-15T17:11:15.357Z,48431.43
2019-05-15T17:13:43.014Z,48446.20
2019-05-15T17:16:10.659Z,48429.46
2019-05-15T17:18:38.322Z,48454.08
2019-05-15T17:21:09.545Z,48438.33
2019-05-15T17:23:35.429Z,48498.39
2019-05-15T17:26:03.101Z,48439.31
2019-05-15T17:28:30.768Z,48441.28
2019-05-15T17:30:58.537Z,48414.70
2019-05-15T17:33:28.660Z,48436.36
2019-05-15T17:35:57.923Z,48439.31
2019-05-15T17:38:25.041Z,48455.07
2019-05-15T17:40:53.095Z,48465.90
2019-05-15T17:43:20.748Z,48445.22
2019-05-15T17:45:48.442Z,48429.46
2019-05-15T17:48:16.177Z,48459.00
2019-05-15T17:50:48.826Z,48455.07
2019-05-15T17:53:13.191Z,48464.91
2019-05-15T17:55:40.847Z,48453.10
2019-05-15T17:58:09.316Z,48435.37
2019-05-15T18:00:39.369Z,48437.34
2019-05-15T18:03:08.672Z,48465.90
2019-05-15T18:05:35.884Z,48454.08
2019-05-15T18:08:03.555Z,48459.00
2019-05-15T18:10:31.202Z,48475.74
2019-05-15T18:12:58.891Z,48422.57
2019-05-15T18:15:26.555Z,48478.70
2019-05-15T18:17:54.400Z,48473.77
2019-05-15T18:20:22.076Z,48490.51
2019-05-15T18:22:49.732Z,48490.51
2019-05-15T18:25:18.323Z,48435.37
2019-05-15T18:27:48.023Z,48471.80
2019-05-15T18:30:18.121Z,48474.76
2019-05-15T18:32:44.936Z,48454.08
2019-05-15T18:35:12.873Z,48461.96
2019-05-15T18:37:40.535Z,48449.16
2019-05-15T18:40:09.954Z,48482.64
2019-05-15T18:42:38.904Z,48493.47
2019-05-15T18:45:07.120Z,48479.68
2019-05-15T18:47:34.839Z,48480.67
2019-05-15T18:50:05.792Z,48449.16
2019-05-15T18:52:31.888Z,48486.57
2019-05-15T18:54:59.539Z,48469.84
2019-05-15T18:57:27.194Z,48463.93
2019-05-15T18:59:54.875Z,48451.13
2019-05-15T19:02:22.538Z,48438.33
2019-05-15T19:04:50.196Z,48470.82
2019-05-15T19:07:18.177Z,48451.13
2019-05-15T19:09:47.898Z,48459.00
2019-05-15T19:12:17.722Z,48450.14
2019-05-15T19:14:44.719Z,48481.65
2019-05-15T19:17:12.378Z,48483.62
2019-05-15T19:19:40.041Z,48499.37
2019-05-15T19:22:07.912Z,48447.19
2019-05-15T19:24:39.955Z,48477.71
2019-05-15T19:27:05.021Z,48432.42
2019-05-15T19:29:33.068Z,48452.11
2019-05-15T19:32:00.732Z,48487.56
2019-05-15T19:34:28.392Z,48491.50
2019-05-15T19:36:58.045Z,48457.04
2019-05-15T19:39:25.432Z,48466.88
2019-05-15T19:41:53.096Z,48451.13
2019-05-15T19:44:20.762Z,48480.67
2019-05-15T19:46:48.421Z,48468.85
2019-05-15T19:49:17.956Z,48463.93
2019-05-15T19:51:45.459Z,48472.79
2019-05-15T19:54:13.116Z,48477.71
2019-05-15T19:56:40.787Z,48502.33
2019-05-15T19:59:08.925Z,48449.16
2019-05-15T20:01:38.408Z,48493.47
2019-05-15T20:04:08.015Z,48489.53
2019-05-15T20:06:35.641Z,48455.07
2019-05-15T20:09:03.308Z,48484.61
2019-05-15T20:11:30.968Z,48498.39
2019-05-15T20:13:58.644Z,48477.71
2019-05-15T20:16:28.199Z,48510.21
2019-05-15T20:18:57.939Z,48472.79
2019-05-15T20:21:25.040Z,48474.76
2019-05-15T20:23:52.705Z,48507.25
2019-05-15T20:26:20.355Z,48457.04
2019-05-15T20:28:48.393Z,48473.77
2019-05-15T20:31:18.410Z,48469.84
2019-05-15T20:33:45.536Z,48472.79
2019-05-15T20:36:13.190Z,48482.64
2019-05-15T20:38:40.837Z,48498.39
2019-05-15T20:41:08.512Z,48464.91
2019-05-15T20:43:38.465Z,48455.07
2019-05-15T20:46:08.294Z,48485.59
2019-05-15T20:48:35.261Z,48478.70
2019-05-15T20:51:02.950Z,48493.47
2019-05-15T20:53:30.607Z,48497.41
2019-05-15T20:55:58.914Z,48439.31
2019-05-15T20:58:26.820Z,48486.57
2019-05-15T21:00:54.475Z,48479.68
2019-05-15T21:03:22.428Z,48498.39
2019-05-15T21:05:50.103Z,48471.80
2019-05-15T21:08:18.276Z,48477.71
2019-05-15T21:10:46.112Z,48476.73
2019-05-15T21:13:13.762Z,48469.84
2019-05-15T21:15:41.431Z,48508.24
2019-05-15T21:18:14.638Z,48454.08
2019-05-15T21:20:38.488Z,48510.21
2019-05-15T21:23:08.925Z,48485.59
2019-05-15T21:25:35.808Z,48469.84
2019-05-15T21:28:03.469Z,48494.45
2019-05-15T21:30:31.130Z,48470.82
2019-05-15T21:32:58.789Z,48483.62
2019-05-15T21:35:27.702Z,48491.50
2019-05-15T21:37:57.667Z,48470.82
2019-05-15T21:40:25.200Z,48476.73
2019-05-15T21:42:52.858Z,48496.42
2019-05-15T21:45:20.520Z,48475.74
2019-05-15T21:47:48.182Z,48491.50
2019-05-15T21:50:15.857Z,48460.97
2019-05-15T21:52:43.502Z,48473.77
2019-05-15T21:55:11.157Z,48520.05
2019-05-15T21:57:41.242Z,48463.93
2019-05-15T22:00:08.801Z,48512.18
2019-05-15T22:02:38.865Z,48474.76
2019-05-15T22:05:08.297Z,48505.28
2019-05-15T22:07:35.353Z,48482.64
2019-05-15T22:10:03.103Z,48481.65
2019-05-15T22:12:30.744Z,48464.91
2019-05-15T22:14:58.433Z,48447.19
2019-05-15T22:17:29.095Z,48490.51
2019-05-15T22:19:57.768Z,48496.42
2019-05-15T22:22:24.840Z,48525.96
2019-05-15T22:24:52.500Z,48510.21
2019-05-15T22:27:21.129Z,48472.79
2019-05-15T22:29:48.987Z,48482.64
2019-05-15T22:32:18.542Z,48468.85
2019-05-15T22:34:48.132Z,48513.16
2019-05-15T22:37:15.382Z,48510.21
2019-05-15T22:39:43.059Z,48482.64
2019-05-15T22:42:10.979Z,48484.61
2019-05-15T22:44:38.963Z,48475.74
2019-05-15T22:47:06.612Z,48498.39
2019-05-15T22:49:34.265Z,48507.25
2019-05-15T22:52:01.956Z,48458.02
2019-05-15T22:54:29.708Z,48487.56
2019-05-15T22:56:57.829Z,48480.67
2019-05-15T22:59:25.512Z,48536.79
2019-05-15T23:01:53.173Z,48485.59
2019-05-15T23:04:20.904Z,48501.34
2019-05-15T23:06:48.571Z,48496.42
2019-05-15T23:09:16.230Z,48486.57
2019-05-15T23:11:43.916Z,48496.42
2019-05-15T23:14:11.601Z,48527.93
2019-05-15T23:16:39.537Z,48484.61
2019-05-15T23:19:08.136Z,48516.11
2019-05-15T23:21:37.829Z,48482.64
2019-05-15T23:24:05.395Z,48513.16
2019-05-15T23:26:33.072Z,48495.44
2019-05-15T23:29:00.721Z,48466.88
2019-05-15T23:31:28.375Z,48500.36
2019-05-15T23:33:56.072Z,48504.30
2019-05-15T23:36:23.735Z,48451.13
2019-05-15T23:38:51.395Z,48516.11
2019-05-15T23:41:19.155Z,48495.44
2019-05-15T23:43:48.282Z,48510.21
2019-05-15T23:46:18.218Z,48503.31
2019-05-15T23:48:45.500Z,48478.70
2019-05-15T23:51:13.152Z,48478.70
2019-05-15T23:53:40.814Z,48514.14
2019-05-15T23:56:09.358Z,48492.48
2019-05-15T23:58:38.031Z,48468.85
